Time;durP1;ratioP1;P1;durP2;ratioP2;P2;SDS_P1;SDS_P2;PMS_P1;PMS_P2;Temp;Humidity;BMP_temperature;BMP_pressure;BME280_temperature;BME280_humidity;BME280_pressure;Samples;Min_cycle;Max_cycle;Signal;HPM_P1;HPM_P2
2023/09/10 00:00:20;;;;;;;21.33;20.23;;;;;;;-141.02;76.54;42240.88;5135448;27;20227;-58
2023/09/10 00:02:46;;;;;;;21.05;19.95;;;;;;;-141.02;77.67;42190.97;5135870;27;20188;-58
2023/09/10 00:05:15;;;;;;;20.10;19.10;;;;;;;-141.02;77.12;42229.34;5135465;27;20224;-58
2023/09/10 00:07:42;;;;;;;21.33;20.23;;;;;;;-141.02;77.65;42210.16;5135447;27;20189;-58
2023/09/10 00:10:10;;;;;;;21.23;20.13;;;;;;;-141.02;78.19;42190.97;5135728;27;20196;-59
2023/09/10 00:12:37;;;;;;;21.42;20.33;;;;;;;-141.02;77.92;42210.16;5134195;27;20193;-58
2023/09/10 00:15:05;;;;;;;21.52;20.40;;;;;;;-141.02;77.69;42214.00;5135657;27;20198;-58
2023/09/10 00:17:32;;;;;;;20.98;19.88;;;;;;;-141.02;78.16;42183.28;5135592;27;20196;-58
2023/09/10 00:20:00;;;;;;;20.67;19.58;;;;;;;-141.02;78.63;42175.59;5135499;27;20662;-58
2023/09/10 00:22:28;;;;;;;20.42;19.33;;;;;;;-141.02;79.55;42125.69;5135470;27;20193;-58
2023/09/10 00:24:55;;;;;;;20.55;19.55;;;;;;;-141.02;79.58;42167.94;5135340;27;20700;-58
2023/09/10 00:27:22;;;;;;;20.80;19.70;;;;;;;-141.02;79.31;42150.66;5135101;27;20188;-58
2023/09/10 00:29:49;;;;;;;20.50;19.50;;;;;;;-141.02;78.19;42210.16;5134973;27;20227;-61
2023/09/10 00:32:16;;;;;;;21.00;19.90;;;;;;;-141.02;78.62;42177.53;5134985;27;20283;-58
2023/09/10 00:34:43;;;;;;;20.05;19.05;;;;;;;-141.02;76.97;42240.88;5134971;27;20188;-58
2023/09/10 00:37:11;;;;;;;19.88;18.88;;;;;;;-141.02;77.67;42210.16;5135197;27;20433;-58
2023/09/10 00:39:39;;;;;;;20.35;19.35;;;;;;;-141.02;79.00;42171.78;5135122;27;20228;-58
2023/09/10 00:42:07;;;;;;;20.00;19.00;;;;;;;-141.02;78.39;42167.94;5134960;27;20192;-59
2023/09/10 00:44:34;;;;;;;20.42;19.42;;;;;;;-141.02;79.95;42148.75;5134837;27;20192;-58
2023/09/10 00:47:01;;;;;;;20.02;19.02;;;;;;;-141.02;79.58;42142.97;5134915;27;20280;-58
2023/09/10 00:49:28;;;;;;;19.95;18.95;;;;;;;-141.02;80.58;42093.06;5134901;27;20196;-67
2023/09/10 00:51:56;;;;;;;20.42;19.42;;;;;;;-141.02;80.24;42123.78;5135135;27;20279;-58
2023/09/10 00:54:25;;;;;;;20.27;19.27;;;;;;;-141.02;80.54;42129.53;5134524;27;20249;-59
2023/09/10 00:56:53;;;;;;;20.60;19.60;;;;;;;-141.02;79.62;42141.06;5134554;27;20662;-58
2023/09/10 00:59:20;;;;;;;19.98;18.98;;;;;;;-141.02;80.82;42087.31;5134504;27;20220;-58
2023/09/10 01:01:48;;;;;;;20.13;19.13;;;;;;;-141.02;84.14;41979.84;5134410;27;20199;-58
2023/09/10 01:04:17;;;;;;;20.20;19.20;;;;;;;-141.02;84.00;41910.75;5134446;27;20308;-58
2023/09/10 01:06:44;;;;;;;20.30;19.30;;;;;;;-141.02;82.23;41987.50;5134608;27;20193;-58
2023/09/10 01:09:11;;;;;;;20.10;19.10;;;;;;;-141.02;82.72;41979.84;5134293;27;20655;-58
2023/09/10 01:11:47;;;;;;;20.27;19.27;;;;;;;-141.02;83.44;41943.38;5134585;27;20196;-58
2023/09/10 01:14:22;;;;;;;19.98;18.98;;;;;;;-141.02;84.60;41910.75;5134445;27;20266;-58
2023/09/10 01:16:58;;;;;;;20.15;19.15;;;;;;;-141.02;85.30;41835.91;5134488;27;20654;-58
2023/09/10 01:20:00;;;;;;;19.65;18.65;;;;;;;-141.02;86.02;41807.09;5134331;27;20212;-58
2023/09/10 01:22:33;;;;;;;20.15;19.15;;;;;;;-141.02;86.73;41743.78;5134328;27;20180;-58
2023/09/10 01:25:02;;;;;;;20.45;19.45;;;;;;;-141.02;87.38;41711.16;5133778;27;20189;-58
2023/09/10 01:27:29;;;;;;;19.60;18.60;;;;;;;-141.02;86.02;41755.28;5133954;27;20188;-58
2023/09/10 01:29:56;;;;;;;20.05;19.05;;;;;;;-141.02;85.96;41728.44;5133877;27;20199;-58
2023/09/10 01:32:28;;;;;;;19.92;18.92;;;;;;;-141.02;87.04;41707.31;5134176;27;20275;-58
2023/09/10 01:35:03;;;;;;;18.88;17.98;;;;;;;-141.02;86.91;41711.16;5133983;27;20184;-58
2023/09/10 01:37:35;;;;;;;20.10;19.10;;;;;;;-141.02;87.89;41655.50;5134064;27;20188;-58
2023/09/10 01:40:09;;;;;;;19.95;18.95;;;;;;;-141.02;87.73;41630.56;5133608;27;20212;-58
2023/09/10 01:42:37;;;;;;;20.05;19.05;;;;;;;-141.02;88.54;41609.44;5133679;27;20196;-58
2023/09/10 01:45:10;;;;;;;20.10;19.10;;;;;;;-141.02;87.65;41603.69;5133836;27;20199;-58
2023/09/10 01:47:37;;;;;;;20.10;19.10;;;;;;;-141.02;88.39;41576.81;5133930;27;20196;-59
2023/09/10 01:50:07;;;;;;;19.85;18.85;;;;;;;-141.02;89.88;41482.78;5133828;27;20203;-58
2023/09/10 01:52:34;;;;;;;19.67;18.77;;;;;;;-141.02;89.67;41475.09;5133808;27;20193;-58
2023/09/10 01:55:02;;;;;;;20.00;19.00;;;;;;;-141.02;91.18;41427.13;5133742;27;20273;-67
2023/09/10 01:57:30;;;;;;;19.67;18.67;;;;;;;-141.02;91.61;41296.66;5133357;27;20196;-59
2023/09/10 01:59:57;;;;;;;19.02;18.13;;;;;;;-141.02;92.59;41269.78;5133541;27;20232;-58
2023/09/10 02:02:24;;;;;;;19.25;18.25;;;;;;;-141.02;90.74;41327.34;5133167;27;20595;-58
2023/09/10 02:04:51;;;;;;;19.48;18.48;;;;;;;-141.02;90.72;41335.03;5133321;27;20231;-58
2023/09/10 02:07:18;;;;;;;19.80;18.80;;;;;;;-141.02;91.14;41287.06;5133515;27;20196;-58
2023/09/10 02:09:45;;;;;;;19.58;18.58;;;;;;;-141.02;90.92;41336.94;5133246;27;20567;-58
2023/09/10 02:12:12;;;;;;;19.55;18.55;;;;;;;-141.02;91.98;41252.53;5133223;27;20623;-58
2023/09/10 02:14:42;;;;;;;19.55;18.55;;;;;;;-141.02;91.43;41271.72;5133496;27;20201;-58
2023/09/10 02:17:09;;;;;;;19.35;18.45;;;;;;;-141.02;92.24;41193.03;5133468;27;20271;-58
2023/09/10 02:19:36;;;;;;;19.52;18.52;;;;;;;-141.02;91.91;41235.25;5132962;27;20697;-58
2023/09/10 02:22:04;;;;;;;19.63;18.63;;;;;;;-141.02;92.30;41198.78;5133135;27;20202;-60
2023/09/10 02:24:31;;;;;;;19.25;18.35;;;;;;;-141.02;92.58;41177.69;5133427;27;20193;-58
2023/09/10 02:26:58;;;;;;;19.13;18.23;;;;;;;-141.02;92.96;41133.56;5133347;27;20242;-58
2023/09/10 02:29:25;;;;;;;19.38;18.48;;;;;;;-141.02;92.72;41127.78;5133289;27;20220;-59
2023/09/10 02:31:54;;;;;;;19.83;18.83;;;;;;;-141.02;93.67;41100.94;5133273;27;20199;-58
2023/09/10 02:34:21;;;;;;;19.70;18.80;;;;;;;-141.02;93.89;41081.75;5132996;27;20651;-58
2023/09/10 02:36:48;;;;;;;19.40;18.50;;;;;;;-141.02;94.81;40997.31;5135774;27;20203;-58
2023/09/10 02:39:15;;;;;;;19.58;18.67;;;;;;;-141.02;94.84;40974.28;5137440;27;20196;-58
2023/09/10 02:41:43;;;;;;;18.83;17.92;;;;;;;-141.02;95.39;40916.75;5137463;27;20268;-58
2023/09/10 02:44:11;;;;;;;19.27;18.38;;;;;;;-141.02;95.30;40889.88;5137433;27;20229;-58
2023/09/10 02:46:38;;;;;;;19.25;18.35;;;;;;;-141.02;94.97;40889.88;5137372;27;20281;-58
2023/09/10 02:49:07;;;;;;;18.90;18.00;;;;;;;-141.02;95.32;40843.81;5136944;27;20684;-58
2023/09/10 02:51:33;;;;;;;18.88;17.98;;;;;;;-141.02;95.64;40855.34;5136958;27;20196;-58
2023/09/10 02:54:00;;;;;;;18.83;17.92;;;;;;;-141.02;94.75;40889.88;5136994;27;20199;-58
2023/09/10 02:56:27;;;;;;;19.50;18.60;;;;;;;-141.02;93.81;40897.56;5136879;27;20203;-67
2023/09/10 02:58:54;;;;;;;19.25;18.35;;;;;;;-141.02;93.65;40962.78;5136854;27;20193;-58
2023/09/10 03:01:21;;;;;;;19.08;18.17;;;;;;;-141.02;92.72;41003.06;5136913;27;20310;-58
2023/09/10 03:03:50;;;;;;;19.42;18.52;;;;;;;-141.02;89.83;41127.78;5136618;27;20355;-58
2023/09/10 03:06:18;;;;;;;19.15;18.25;;;;;;;-141.02;89.67;41158.50;5136670;27;20680;-58
2023/09/10 03:08:45;;;;;;;20.10;19.10;;;;;;;-141.02;90.67;41150.81;5136984;27;20218;-58
2023/09/10 03:11:12;;;;;;;19.60;18.70;;;;;;;-141.02;91.52;41064.47;5136617;27;20193;-58
2023/09/10 03:13:39;;;;;;;19.85;18.85;;;;;;;-141.02;91.39;41110.53;5136794;27;20189;-58
2023/09/10 03:16:06;;;;;;;19.08;18.17;;;;;;;-141.02;94.80;40932.09;5136579;27;20197;-58
2023/09/10 03:18:33;;;;;;;19.58;18.67;;;;;;;-141.02;94.93;40912.91;5136744;27;20202;-58
2023/09/10 03:21:02;;;;;;;19.70;18.80;;;;;;;-141.02;95.54;40861.09;5136751;27;20227;-58
2023/09/10 03:23:31;;;;;;;19.70;18.80;;;;;;;-141.02;95.97;40805.47;5136671;27;20196;-58
2023/09/10 03:25:57;;;;;;;19.42;18.52;;;;;;;-141.02;96.34;40824.63;5136583;27;20295;-58
2023/09/10 03:28:24;;;;;;;19.27;18.38;;;;;;;-141.02;98.29;40682.66;5136321;27;20200;-58
2023/09/10 03:30:57;;;;;;;18.85;17.95;;;;;;;-141.02;100.00;40298.97;5136174;27;20239;-58
2023/09/10 03:33:24;;;;;;;18.13;17.33;;;;;;;-141.02;100.00;39867.41;5136531;27;20189;-58
2023/09/10 03:35:51;;;;;;;18.27;17.48;;;;;;;-141.02;100.00;39838.63;5136044;27;20579;-59
2023/09/10 03:38:18;;;;;;;18.10;17.30;;;;;;;-141.02;100.00;39798.34;5136085;27;20661;-58
2023/09/10 03:40:46;;;;;;;18.20;17.40;;;;;;;-141.02;100.00;39857.81;5136354;27;20234;-58
2023/09/10 03:43:13;;;;;;;18.88;18.00;;;;;;;-141.02;100.00;39961.38;5135982;27;20193;-58
2023/09/10 03:45:40;;;;;;;18.10;17.30;;;;;;;-141.02;98.08;40107.16;5136275;27;20311;-58
2023/09/10 03:48:07;;;;;;;18.00;17.20;;;;;;;-141.02;96.99;40283.63;5135832;27;20680;-58
2023/09/10 03:50:35;;;;;;;18.77;17.88;;;;;;;-141.02;95.20;40460.13;5136190;27;20605;-58
2023/09/10 03:53:02;;;;;;;19.02;18.13;;;;;;;-141.02;95.52;40529.19;5136188;27;20260;-58
2023/09/10 03:55:29;;;;;;;19.42;18.52;;;;;;;-141.02;94.16;40636.63;5136053;27;20249;-58
2023/09/10 03:57:57;;;;;;;19.08;18.17;;;;;;;-141.02;93.10;40721.03;5135716;27;20287;-58
2023/09/10 04:00:24;;;;;;;17.88;17.08;;;;;;;-141.02;94.04;40774.75;5135877;27;20284;-59
2023/09/10 04:02:51;;;;;;;19.05;18.15;;;;;;;-141.02;95.89;40801.63;5135655;27;20198;-58
2023/09/10 04:05:18;;;;;;;18.48;17.58;;;;;;;-141.02;96.33;40813.13;5135365;27;20319;-58
2023/09/10 04:07:45;;;;;;;18.33;17.42;;;;;;;-141.02;97.69;40805.47;5135765;27;20193;-58
2023/09/10 04:10:12;;;;;;;18.50;17.60;;;;;;;-141.02;98.08;40866.84;5135806;27;20295;-58
2023/09/10 04:12:39;;;;;;;18.08;17.27;;;;;;;-141.02;100.00;40790.09;5135403;27;20199;-58
2023/09/10 04:15:10;;;;;;;18.17;17.38;;;;;;;-141.02;100.00;40736.38;5135408;27;20192;-58
2023/09/10 04:17:37;;;;;;;17.98;17.17;;;;;;;-141.02;100.00;40738.31;5135203;27;20202;-58
2023/09/10 04:20:08;;;;;;;17.85;17.05;;;;;;;-141.02;100.00;40744.06;5135482;27;20223;-58
2023/09/10 04:22:34;;;;;;;18.30;17.50;;;;;;;-141.02;100.00;40763.25;5135565;27;20185;-58
2023/09/10 04:25:01;;;;;;;18.02;17.23;;;;;;;-141.02;100.00;40755.56;5135215;27;20195;-58
2023/09/10 04:27:28;;;;;;;18.20;17.40;;;;;;;-141.02;100.00;40795.88;5135503;27;20318;-58
2023/09/10 04:29:57;;;;;;;18.10;17.30;;;;;;;-141.02;100.00;40782.44;5134983;27;20283;-58
2023/09/10 04:32:25;;;;;;;17.63;16.92;;;;;;;-141.02;100.00;40864.94;5135367;27;20200;-58
2023/09/10 04:34:52;;;;;;;18.33;17.52;;;;;;;-141.02;97.28;41031.84;5134934;27;20195;-58
2023/09/10 04:37:20;;;;;;;19.08;18.27;;;;;;;-141.02;94.13;41162.34;5134793;27;20753;-59
2023/09/10 04:39:47;;;;;;;19.40;18.50;;;;;;;-141.02;91.72;41288.97;5134670;27;20193;-58
2023/09/10 04:42:14;;;;;;;19.60;18.70;;;;;;;-141.02;90.43;41361.91;5135072;27;20200;-58
2023/09/10 04:44:41;;;;;;;19.58;18.67;;;;;;;-141.02;89.84;41438.66;5135111;27;20188;-58
2023/09/10 04:47:09;;;;;;;19.77;18.88;;;;;;;-141.02;88.71;41480.88;5135036;27;20199;-58
2023/09/10 04:49:37;;;;;;;19.55;18.65;;;;;;;-141.02;88.87;41526.91;5135007;27;20192;-58
2023/09/10 04:52:04;;;;;;;20.20;19.30;;;;;;;-141.02;87.18;41603.69;5134590;27;20580;-58
2023/09/10 04:54:31;;;;;;;19.80;18.90;;;;;;;-141.02;86.84;41597.94;5134636;27;20198;-58
2023/09/10 04:56:58;;;;;;;20.30;19.30;;;;;;;-141.02;86.34;41590.25;5134874;27;20196;-58
2023/09/10 04:59:25;;;;;;;19.75;18.80;;;;;;;-141.02;86.20;41580.66;5133888;27;20658;-59
2023/09/10 05:01:52;;;;;;;20.20;19.20;;;;;;;-141.02;86.05;41582.56;5134675;27;20224;-58
2023/09/10 05:04:19;;;;;;;19.98;19.08;;;;;;;-141.02;86.59;41622.88;5134287;27;20306;-58
2023/09/10 05:06:47;;;;;;;19.90;19.00;;;;;;;-141.02;86.02;41603.69;5134689;27;20278;-58
2023/09/10 05:09:14;;;;;;;20.08;19.08;;;;;;;-141.02;87.14;41557.63;5134591;27;20279;-58
2023/09/10 05:11:41;;;;;;;18.98;18.08;;;;;;;-141.02;86.65;41584.50;5134235;27;20249;-58
2023/09/10 05:14:08;;;;;;;19.45;18.55;;;;;;;-141.02;87.39;41538.44;5134197;27;20279;-58
2023/09/10 05:16:35;;;;;;;19.23;18.33;;;;;;;-141.02;86.17;41572.97;5134094;27;20557;-58
2023/09/10 05:19:02;;;;;;;19.02;18.13;;;;;;;-141.02;84.83;41638.22;5134467;27;20192;-58
2023/09/10 05:21:29;;;;;;;19.55;18.65;;;;;;;-141.02;84.14;41638.22;5134301;27;20228;-58
2023/09/10 05:23:58;;;;;;;19.73;18.77;;;;;;;-141.02;83.99;41676.59;5134005;27;20192;-58
2023/09/10 05:26:24;;;;;;;19.45;18.55;;;;;;;-141.02;85.15;41607.53;5134255;27;20197;-58
2023/09/10 05:28:52;;;;;;;19.50;18.60;;;;;;;-141.02;85.74;41592.16;5134227;27;20273;-58
2023/09/10 05:31:18;;;;;;;19.75;18.75;;;;;;;-141.02;84.75;41630.56;5133918;27;20196;-58
2023/09/10 05:33:45;;;;;;;19.75;18.75;;;;;;;-141.02;84.25;41455.91;5133860;27;20274;-58
2023/09/10 05:36:12;;;;;;;19.52;18.52;;;;;;;-141.02;82.67;41720.75;5134090;27;20196;-58
2023/09/10 05:38:39;;;;;;;19.50;18.60;;;;;;;-141.02;84.30;41659.34;5133771;27;20196;-58
2023/09/10 05:41:09;;;;;;;19.33;18.42;;;;;;;-141.02;83.19;41716.91;5133620;27;20238;-59
2023/09/10 05:43:36;;;;;;;18.95;18.05;;;;;;;-141.02;82.97;41720.75;5133651;27;20227;-58
2023/09/10 05:46:03;;;;;;;18.92;18.02;;;;;;;-141.02;80.66;41791.75;5133627;27;20672;-58
2023/09/10 05:48:30;;;;;;;20.08;19.17;;;;;;;-141.02;80.83;41780.25;5133557;27;20196;-58
2023/09/10 05:50:57;;;;;;;20.10;19.20;;;;;;;-141.02;80.67;41782.16;5133504;27;20749;-58
2023/09/10 05:53:24;;;;;;;20.05;19.15;;;;;;;-141.02;77.88;41887.72;5133848;27;20200;-58
2023/09/10 05:55:51;;;;;;;20.50;19.60;;;;;;;-141.02;78.05;41872.38;5133817;27;20193;-58
2023/09/10 05:58:20;;;;;;;20.15;19.25;;;;;;;-141.02;78.95;41849.34;5133665;27;20188;-58
2023/09/10 06:00:47;;;;;;;19.75;18.92;;;;;;;-141.02;79.95;41851.25;5133581;27;20227;-58
2023/09/10 06:03:14;;;;;;;19.52;18.73;;;;;;;-141.02;79.76;41853.16;5133326;27;20192;-58
2023/09/10 06:05:40;;;;;;;19.98;19.08;;;;;;;-141.02;80.15;41826.31;5133116;27;20242;-58
2023/09/10 06:08:07;;;;;;;18.95;18.05;;;;;;;-141.02;79.87;41849.34;5133582;27;20188;-58
2023/09/10 06:10:34;;;;;;;19.27;18.38;;;;;;;-141.02;79.45;41853.16;5132336;27;20201;-58
2023/09/10 06:13:01;;;;;;;19.17;18.27;;;;;;;-141.02;78.76;41895.38;5133251;27;20192;-58
2023/09/10 06:15:30;;;;;;;19.45;18.55;;;;;;;-141.02;79.43;41891.56;5133156;27;20199;-58
2023/09/10 06:17:56;;;;;;;19.05;18.15;;;;;;;-141.02;78.86;41895.38;5133214;27;20192;-58
2023/09/10 06:20:23;;;;;;;19.27;18.38;;;;;;;-141.02;76.91;41949.13;5133359;27;20192;-58
2023/09/10 06:22:52;;;;;;;19.23;18.33;;;;;;;-141.02;78.33;41903.06;5133334;27;20193;-58
2023/09/10 06:25:19;;;;;;;19.30;18.40;;;;;;;-141.02;76.51;41960.66;5133108;27;20192;-58
2023/09/10 06:27:46;;;;;;;19.15;18.25;;;;;;;-141.02;74.53;42002.88;5133003;27;20193;-58
2023/09/10 06:30:13;;;;;;;19.98;18.98;;;;;;;-141.02;74.89;41989.44;5133348;27;20196;-58
2023/09/10 06:32:42;;;;;;;19.92;19.00;;;;;;;-141.02;75.19;41979.84;5132918;27;20196;-58
2023/09/10 06:35:09;;;;;;;19.92;18.92;;;;;;;-141.02;73.46;42041.25;5132989;27;20202;-58
2023/09/10 06:37:36;;;;;;;18.98;18.08;;;;;;;-141.02;73.79;42041.25;5133254;27;20200;-58
2023/09/10 06:40:03;;;;;;;19.85;18.85;;;;;;;-141.02;74.80;42006.72;5132904;27;20193;-59
2023/09/10 06:42:30;;;;;;;19.95;18.95;;;;;;;-141.02;74.66;42000.94;5132839;27;20228;-58
2023/09/10 06:44:57;;;;;;;20.15;19.15;;;;;;;-141.02;74.86;41979.84;5132798;27;20662;-58
2023/09/10 06:47:25;;;;;;;19.83;18.92;;;;;;;-141.02;74.12;42020.16;5133218;27;20226;-66
2023/09/10 06:49:53;;;;;;;19.42;18.63;;;;;;;-141.02;75.10;41962.56;5132834;27;20253;-59
2023/09/10 06:52:20;;;;;;;19.58;18.67;;;;;;;-141.02;73.99;41987.50;5132781;27;20684;-58
2023/09/10 06:54:47;;;;;;;19.50;18.60;;;;;;;-141.02;74.45;42037.41;5132747;27;20192;-58
2023/09/10 06:57:14;;;;;;;20.10;19.10;;;;;;;-141.02;73.93;42029.75;5133010;27;20280;-59
2023/09/10 06:59:41;;;;;;;20.23;19.23;;;;;;;-141.02;73.53;42047.00;5132780;27;20189;-58
2023/09/10 07:02:08;;;;;;;19.85;18.85;;;;;;;-141.02;71.38;42066.22;5132594;27;20220;-58
2023/09/10 07:04:35;;;;;;;19.77;18.77;;;;;;;-141.02;71.94;42054.69;5132895;27;20230;-58
2023/09/10 07:07:03;;;;;;;19.73;18.73;;;;;;;-141.02;70.54;42106.50;5133019;27;20196;-58
2023/09/10 07:09:30;;;;;;;19.35;18.45;;;;;;;-141.02;71.46;42089.25;5132927;27;20250;-59
2023/09/10 07:11:57;;;;;;;19.98;18.98;;;;;;;-141.02;70.63;42079.63;5132654;27;20192;-59
2023/09/10 07:14:24;;;;;;;20.05;19.05;;;;;;;-141.02;69.61;42102.66;5132850;27;20197;-58
2023/09/10 07:16:51;;;;;;;19.20;18.30;;;;;;;-141.02;69.26;42131.47;5132900;27;20188;-58
2023/09/10 07:19:18;;;;;;;19.17;18.27;;;;;;;-141.02;67.15;42189.03;5132872;27;20275;-59
2023/09/10 07:21:45;;;;;;;19.20;18.30;;;;;;;-141.02;66.65;42283.09;5133752;27;20606;-58
2023/09/10 07:24:13;;;;;;;20.08;19.08;;;;;;;-141.02;66.74;42298.44;5136399;27;20228;-58
2023/09/10 07:26:40;;;;;;;19.65;18.65;;;;;;;-141.02;65.72;42381.00;5136563;27;20196;-58
2023/09/10 07:29:09;;;;;;;19.60;18.60;;;;;;;-141.02;64.16;42402.09;5136586;27;20292;-58
2023/09/10 07:31:37;;;;;;;19.20;18.20;;;;;;;-141.02;64.21;42428.97;5136266;27;20717;-58
2023/09/10 07:34:04;;;;;;;19.10;18.10;;;;;;;-141.02;63.81;42455.84;5136540;27;20238;-58
2023/09/10 07:36:31;;;;;;;19.55;18.65;;;;;;;-141.02;62.62;42490.41;5136205;27;20196;-60
2023/09/10 07:38:58;;;;;;;19.70;18.70;;;;;;;-141.02;61.64;42515.34;5136336;27;20199;-58
2023/09/10 07:41:27;;;;;;;19.60;18.60;;;;;;;-141.02;60.97;42551.81;5136023;27;20224;-58
2023/09/10 07:43:53;;;;;;;19.48;18.48;;;;;;;-141.02;60.68;42519.19;5136326;27;20577;-58
2023/09/10 07:46:20;;;;;;;18.58;17.67;;;;;;;-141.02;59.36;42594.06;5136010;27;20548;-58
2023/09/10 07:48:47;;;;;;;18.80;17.90;;;;;;;-141.02;59.43;42628.63;5136251;27;20196;-58
2023/09/10 07:51:14;;;;;;;18.40;17.50;;;;;;;-141.02;59.31;42613.25;5136123;27;20196;-58
2023/09/10 07:53:41;;;;;;;18.27;17.38;;;;;;;-141.02;59.33;42578.69;5136105;27;20219;-58
2023/09/10 07:56:08;;;;;;;19.60;18.60;;;;;;;-141.02;58.42;42632.44;5135756;27;20570;-59
2023/09/10 07:58:36;;;;;;;19.67;18.67;;;;;;;-141.02;58.17;42651.66;5136174;27;20291;-58
2023/09/10 08:01:03;;;;;;;19.55;18.55;;;;;;;-141.02;57.61;42686.19;5135556;27;20192;-58
2023/09/10 08:03:30;;;;;;;19.38;18.38;;;;;;;-141.02;57.83;42663.16;5135413;27;20196;-59
2023/09/10 08:05:57;;;;;;;19.15;18.15;;;;;;;-141.02;57.84;42688.13;5135582;27;20232;-58
2023/09/10 08:08:25;;;;;;;18.63;17.73;;;;;;;-141.02;57.90;42738.03;5135502;27;20220;-58
2023/09/10 08:10:52;;;;;;;19.20;18.20;;;;;;;-141.02;58.09;42688.13;5135591;27;20228;-58
2023/09/10 08:13:18;;;;;;;19.10;18.10;;;;;;;-141.02;57.33;42709.25;5135727;27;20204;-59
2023/09/10 08:15:47;;;;;;;19.25;18.25;;;;;;;-141.02;56.79;42678.53;5135376;27;20192;-59
2023/09/10 08:18:14;;;;;;;19.10;18.10;;;;;;;-141.02;57.26;42753.38;5135387;27;20203;-59
2023/09/10 08:20:42;;;;;;;19.08;18.08;;;;;;;-141.02;56.99;42682.34;5135567;27;20192;-58
2023/09/10 08:23:09;;;;;;;19.08;18.08;;;;;;;-141.02;56.82;42736.13;5135143;27;20227;-58
2023/09/10 08:25:37;;;;;;;18.83;17.83;;;;;;;-141.02;56.85;42713.06;5135178;27;20199;-59
2023/09/10 08:28:04;;;;;;;19.00;18.00;;;;;;;-141.02;56.72;42757.22;5135483;27;20287;-58
2023/09/10 08:30:32;;;;;;;18.90;17.90;;;;;;;-141.02;56.38;42705.41;5135159;27;20636;-58
2023/09/10 08:33:00;;;;;;;18.83;17.83;;;;;;;-141.02;55.70;42730.34;5134400;27;20193;-59
2023/09/10 08:35:44;;;;;;;18.67;17.67;;;;;;;-141.02;55.72;42755.31;5135031;27;20192;-59
2023/09/10 08:38:11;;;;;;;18.50;17.50;;;;;;;-141.02;55.58;42736.13;5135006;27;20188;-58
2023/09/10 08:40:43;;;;;;;18.52;17.52;;;;;;;-141.02;55.08;42736.13;5134928;27;20197;-58
2023/09/10 08:43:13;;;;;;;18.42;17.42;;;;;;;-141.02;54.99;42763.00;5135119;27;20216;-59
2023/09/10 08:45:40;;;;;;;18.45;17.45;;;;;;;-141.02;54.81;42730.34;5135098;27;20196;-59
2023/09/10 08:48:09;;;;;;;18.48;17.48;;;;;;;-141.02;54.21;42757.22;5135007;27;20580;-58
2023/09/10 08:50:37;;;;;;;18.48;17.48;;;;;;;-141.02;54.34;42763.00;5135414;27;20196;-59
2023/09/10 08:53:06;;;;;;;18.48;17.48;;;;;;;-141.02;53.88;42780.25;5134649;27;20196;-59
2023/09/10 08:55:35;;;;;;;18.27;17.27;;;;;;;-141.02;54.12;42759.16;5134904;27;20241;-58
2023/09/10 08:58:02;;;;;;;17.98;17.08;;;;;;;-141.02;53.89;42801.38;5134832;27;20197;-59
2023/09/10 09:00:31;;;;;;;18.30;17.30;;;;;;;-141.02;53.70;42803.31;5134807;27;20241;-59
2023/09/10 09:02:58;;;;;;;18.35;17.35;;;;;;;-141.02;54.32;42782.19;5134428;27;20311;-58
2023/09/10 09:05:30;;;;;;;19.90;18.70;;;;;;;-141.02;54.04;42809.06;5134225;27;20630;-59
2023/09/10 09:08:09;;;;;;;18.13;17.13;;;;;;;-141.02;53.79;42799.47;5134384;27;20188;-59
2023/09/10 09:10:37;;;;;;;18.25;17.25;;;;;;;-141.02;53.57;42786.03;5134666;27;20271;-59
2023/09/10 09:13:08;;;;;;;18.20;17.20;;;;;;;-141.02;52.26;42801.38;5134306;27;20238;-59
2023/09/10 09:15:38;;;;;;;18.40;17.40;;;;;;;-141.02;52.66;42812.91;5134230;27;20188;-59
2023/09/10 09:18:08;;;;;;;17.52;16.63;;;;;;;-141.02;52.91;42807.13;5134450;27;20220;-59
2023/09/10 09:20:39;;;;;;;17.83;16.92;;;;;;;-141.02;52.50;42862.81;5134436;27;20212;-59
2023/09/10 09:23:13;;;;;;;18.15;17.15;;;;;;;-141.02;51.98;42837.84;5134083;27;20220;-59
2023/09/10 09:25:41;;;;;;;18.17;17.17;;;;;;;-141.02;51.51;42858.97;5134044;27;20634;-59
2023/09/10 09:28:09;;;;;;;18.38;17.38;;;;;;;-141.02;51.20;42855.13;5134309;27;20188;-59
2023/09/10 09:30:36;;;;;;;18.38;17.38;;;;;;;-141.02;51.11;42866.66;5133924;27;20193;-68
2023/09/10 09:33:04;;;;;;;18.30;17.30;;;;;;;-141.02;51.49;42897.38;5133892;27;20194;-59
2023/09/10 09:35:33;;;;;;;18.17;17.17;;;;;;;-141.02;51.64;42903.13;5134159;27;20200;-59
2023/09/10 09:38:07;;;;;;;18.23;17.23;;;;;;;-141.02;50.48;42862.81;5134021;27;20188;-59
2023/09/10 09:40:35;;;;;;;18.05;17.05;;;;;;;-141.02;50.78;42914.66;5133813;27;20275;-59
2023/09/10 09:43:02;;;;;;;18.60;17.60;;;;;;;-141.02;51.38;42962.66;5133935;27;20227;-59
2023/09/10 09:45:30;;;;;;;18.00;17.00;;;;;;;-141.02;51.30;42951.13;5133534;27;20658;-59
2023/09/10 09:47:58;;;;;;;17.88;16.98;;;;;;;-141.02;51.67;42976.09;5133838;27;20203;-60
2023/09/10 09:50:26;;;;;;;17.80;16.88;;;;;;;-141.02;51.92;42962.66;5133882;27;20203;-59
2023/09/10 09:52:53;;;;;;;17.90;16.92;;;;;;;-141.02;51.91;43012.56;5133854;27;20192;-59
2023/09/10 09:55:22;;;;;;;17.63;16.73;;;;;;;-141.02;51.43;43006.81;5133511;27;20197;-59
2023/09/10 09:57:49;;;;;;;18.20;17.20;;;;;;;-141.02;51.10;43074.00;5133726;27;20196;-59
2023/09/10 10:00:17;;;;;;;17.95;16.95;;;;;;;-141.02;51.56;43035.59;5133642;27;20283;-58
2023/09/10 10:02:45;;;;;;;17.60;16.70;;;;;;;-141.02;52.12;43085.50;5133321;27;20234;-59
2023/09/10 10:05:12;;;;;;;17.65;16.75;;;;;;;-141.02;51.72;43002.97;5133137;27;20234;-59
2023/09/10 10:07:41;;;;;;;17.67;16.77;;;;;;;-141.02;51.60;43022.16;5133487;27;20585;-59
2023/09/10 10:10:14;;;;;;;17.98;17.08;;;;;;;-141.02;51.82;43047.13;5133564;27;20232;-59
2023/09/10 10:12:44;;;;;;;18.35;17.40;;;;;;;-141.02;51.25;43035.59;5133253;27;20189;-59
2023/09/10 10:15:12;;;;;;;18.02;17.08;;;;;;;-141.02;51.53;43047.13;5133827;27;20219;-58
2023/09/10 10:17:42;;;;;;;17.58;16.67;;;;;;;-141.02;51.74;43047.13;5133096;27;20193;-59
2023/09/10 10:20:10;;;;;;;17.48;16.58;;;;;;;-141.02;51.46;43024.06;5133460;27;20196;-59
2023/09/10 10:22:37;;;;;;;17.90;16.95;;;;;;;-141.02;50.96;43049.03;5133316;27;20220;-59
2023/09/10 10:25:05;;;;;;;17.70;16.80;;;;;;;-141.02;51.96;42897.38;5133351;27;20192;-59
2023/09/10 10:27:34;;;;;;;18.08;17.13;;;;;;;-141.02;51.47;43070.16;5132985;27;20287;-59
2023/09/10 10:30:03;;;;;;;17.85;16.95;;;;;;;-141.02;52.25;43098.94;5132973;27;20196;-59
2023/09/10 10:32:38;;;;;;;17.98;17.08;;;;;;;-141.02;51.38;43058.63;5132988;27;20253;-59
2023/09/10 10:35:06;;;;;;;17.98;17.08;;;;;;;-141.02;51.40;43043.28;5133037;27;20634;-59
2023/09/10 10:37:45;;;;;;;17.98;16.98;;;;;;;-141.02;51.26;43075.91;5133063;27;20241;-59
2023/09/10 10:40:13;;;;;;;17.85;16.85;;;;;;;-141.02;51.05;43043.28;5133515;27;20188;-59
2023/09/10 10:42:49;;;;;;;17.50;16.60;;;;;;;-141.02;51.57;43087.44;5133112;27;20235;-59
2023/09/10 10:45:18;;;;;;;17.15;16.25;;;;;;;-141.02;52.07;43075.91;5132916;27;20593;-59
2023/09/10 10:47:47;;;;;;;17.42;16.52;;;;;;;-141.02;51.57;43102.78;5133145;27;20214;-58
2023/09/10 10:50:20;;;;;;;17.38;16.48;;;;;;;-141.02;51.57;43050.97;5132808;27;20736;-60
2023/09/10 10:52:55;;;;;;;17.85;16.95;;;;;;;-141.02;50.81;43050.97;5132984;27;20188;-59
2023/09/10 10:55:24;;;;;;;17.27;16.35;;;;;;;-141.02;51.63;42851.28;5133114;27;20187;-58
2023/09/10 10:57:53;;;;;;;17.50;16.60;;;;;;;-141.02;51.76;42763.00;5135902;27;20190;-59
2023/09/10 11:00:22;;;;;;;17.52;16.63;;;;;;;-141.02;52.33;43127.75;5136716;27;20584;-59
2023/09/10 11:02:50;;;;;;;17.10;16.20;;;;;;;-141.02;52.27;43079.75;5136731;27;20315;-59
2023/09/10 11:05:17;;;;;;;17.45;16.55;;;;;;;-141.02;51.86;43089.34;5136671;27;20654;-59